River Junction, Iowa
Current Conditions -  °F | °C
As of 6:52 AM on Thursday 30 Oct 2014 (Local Time) from KIOW Reporting Station
Broken Clouds Broken Clouds  
Wind Chill: 35°   Ceiling: 11000
Heat Index: 35°   Visibility: 10mi
Dew Point: 33°   Wind: 0mph
Humidity: 92%   Direction: NA
Pressure: 30.11"   Gusts: NA
Location:  41.5156°N, 91.4411°W
Report Text: KIOW 301152Z AUTO 00000KT 10SM BKN110 02/01 A3011 RMK AO2 SLP201 T00170006 10017 20000 58005
Loading
Personal Weather Stations






























Interactive Weather Map
Tropical Storm Tracking
New forecast layout! Learn more

10-Day Weather Forecast

Advertisements
Track Severe Weather on mobile